Mid Ohio Valley Regional Airport Parkersburg US
ICAO: KPKB
IATA: PKB
Category: Medium
Scheduled Services: Yes

Elevation: 858 ft
TransAlt. 18000 ft.

Airport Communications:
ATIS:124.35
INDIANAPOLIS CNTR:125.55
CTAF:123.7
GND:121.7
PARKERSBURG TWR:123.7
UNICOM:122.95

KPKB Zoom In..

If Map Doesn't Load, Click Here

Runways:

(A) RW 03 length 7240 ft width 150 ft
ILS 110.70 / hdg 29

(B) RW 10 length 4002 ft width 150 ft
---- / hdg 102

(C) RW 21 length 7240 ft width 150 ft
---- / hdg 209

(D) RW 28 length 4002 ft width 150 ft
---- / hdg 282

Location; KPKB
Day. 21 / Time. 12.53 Zulu
* Altimeter: 30.13
* Temperature: 24° c. 75.2°f.
* Wind from: 190° Speed 07 kn.
Dewpoint: 20° c.
Visibility: 10 Statute Miles.
Clouds: Clear (automated report).

KPKB 211253Z 19007KT 10SM CLR 24/20 A3013 RMK AO2 SLP196 T02440200


Wind From 190°
Speed 07 kn.

 
 
jpsmedia.com for Web Design worldairports.se 2018   terms of use